sensor_id;sensor_type;location;lat;lon;timestamp;pressure;altitude;pressure_sealevel;temperature;humidity
33155;BME280;19511;42.682;23.332;2023-04-19T00:02:13;94727.22;;;9.90;100.00
33155;BME280;19511;42.682;23.332;2023-04-19T00:04:38;94744.81;;;10.03;100.00
33155;BME280;19511;42.682;23.332;2023-04-19T00:07:04;94740.13;;;9.69;100.00
33155;BME280;19511;42.682;23.332;2023-04-19T00:09:29;94745.66;;;9.69;100.00
33155;BME280;19511;42.682;23.332;2023-04-19T00:12:02;94743.34;;;9.64;100.00
33155;BME280;19511;42.682;23.332;2023-04-19T00:14:27;94747.19;;;9.74;100.00
33155;BME280;19511;42.682;23.332;2023-04-19T00:16:53;94751.94;;;9.70;100.00
33155;BME280;19511;42.682;23.332;2023-04-19T00:19:18;94744.00;;;9.75;100.00
33155;BME280;19511;42.682;23.332;2023-04-19T00:21:45;94741.88;;;9.56;100.00
33155;BME280;19511;42.682;23.332;2023-04-19T00:24:11;94742.50;;;9.67;100.00
33155;BME280;19511;42.682;23.332;2023-04-19T00:26:37;94740.59;;;9.64;100.00
33155;BME280;19511;42.682;23.332;2023-04-19T00:29:02;94734.91;;;9.75;100.00
33155;BME280;19511;42.682;23.332;2023-04-19T00:31:27;94740.81;;;9.77;100.00
33155;BME280;19511;42.682;23.332;2023-04-19T00:33:53;94706.41;;;9.54;100.00
33155;BME280;19511;42.682;23.332;2023-04-19T00:36:18;94737.59;;;9.82;100.00
33155;BME280;19511;42.682;23.332;2023-04-19T00:38:44;94732.53;;;9.77;100.00
33155;BME280;19511;42.682;23.332;2023-04-19T00:41:10;94719.69;;;9.63;100.00
33155;BME280;19511;42.682;23.332;2023-04-19T00:43:35;94718.03;;;9.69;100.00
33155;BME280;19511;42.682;23.332;2023-04-19T00:46:01;94729.59;;;9.88;100.00
33155;BME280;19511;42.682;23.332;2023-04-19T00:48:31;94731.47;;;9.98;100.00
33155;BME280;19511;42.682;23.332;2023-04-19T00:50:56;94712.22;;;9.91;100.00
33155;BME280;19511;42.682;23.332;2023-04-19T00:53:28;94731.00;;;10.03;100.00
33155;BME280;19511;42.682;23.332;2023-04-19T00:55:56;94737.25;;;10.07;100.00
33155;BME280;19511;42.682;23.332;2023-04-19T00:58:22;94715.44;;;9.86;100.00
33155;BME280;19511;42.682;23.332;2023-04-19T01:00:47;94724.03;;;9.91;100.00
33155;BME280;19511;42.682;23.332;2023-04-19T01:03:13;94732.75;;;9.90;100.00
33155;BME280;19511;42.682;23.332;2023-04-19T01:05:39;94696.94;;;9.83;100.00
33155;BME280;19511;42.682;23.332;2023-04-19T01:08:06;94656.75;;;9.51;100.00
33155;BME280;19511;42.682;23.332;2023-04-19T01:10:32;94695.00;;;9.79;100.00
33155;BME280;19511;42.682;23.332;2023-04-19T01:12:58;94707.50;;;9.88;100.00
33155;BME280;19511;42.682;23.332;2023-04-19T01:15:23;94682.88;;;9.73;100.00
33155;BME280;19511;42.682;23.332;2023-04-19T01:17:49;94696.47;;;9.88;100.00
33155;BME280;19511;42.682;23.332;2023-04-19T01:20:15;94715.28;;;9.96;100.00
33155;BME280;19511;42.682;23.332;2023-04-19T01:22:41;94631.47;;;9.25;100.00
33155;BME280;19511;42.682;23.332;2023-04-19T01:25:06;94698.16;;;9.82;100.00
33155;BME280;19511;42.682;23.332;2023-04-19T01:27:36;94637.97;;;9.38;100.00
33155;BME280;19511;42.682;23.332;2023-04-19T01:30:02;94726.75;;;9.95;100.00
33155;BME280;19511;42.682;23.332;2023-04-19T01:32:31;94650.50;;;9.46;100.00
33155;BME280;19511;42.682;23.332;2023-04-19T01:34:56;94632.84;;;9.40;100.00
33155;BME280;19511;42.682;23.332;2023-04-19T01:37:22;94718.47;;;9.95;100.00
33155;BME280;19511;42.682;23.332;2023-04-19T01:39:51;94661.34;;;9.61;100.00
33155;BME280;19511;42.682;23.332;2023-04-19T01:42:17;94698.16;;;9.82;100.00
33155;BME280;19511;42.682;23.332;2023-04-19T01:44:42;94715.44;;;9.86;100.00
33155;BME280;19511;42.682;23.332;2023-04-19T01:47:10;94706.06;;;9.79;100.00
33155;BME280;19511;42.682;23.332;2023-04-19T01:49:36;94705.69;;;9.77;100.00
33155;BME280;19511;42.682;23.332;2023-04-19T01:52:01;94673.22;;;9.58;100.00
33155;BME280;19511;42.682;23.332;2023-04-19T01:54:26;94613.84;;;9.15;100.00
33155;BME280;19511;42.682;23.332;2023-04-19T01:56:55;94596.78;;;8.93;100.00
33155;BME280;19511;42.682;23.332;2023-04-19T01:59:21;94671.22;;;9.31;100.00
33155;BME280;19511;42.682;23.332;2023-04-19T02:01:46;94699.06;;;9.40;100.00
33155;BME280;19511;42.682;23.332;2023-04-19T02:04:17;94705.09;;;9.31;100.00
33155;BME280;19511;42.682;23.332;2023-04-19T02:06:45;94694.84;;;9.32;100.00
33155;BME280;19511;42.682;23.332;2023-04-19T02:09:11;94652.66;;;9.01;100.00
33155;BME280;19511;42.682;23.332;2023-04-19T02:11:37;94709.00;;;9.34;100.00
33155;BME280;19511;42.682;23.332;2023-04-19T02:14:05;94712.59;;;9.31;100.00
33155;BME280;19511;42.682;23.332;2023-04-19T02:16:37;94714.63;;;9.27;100.00
33155;BME280;19511;42.682;23.332;2023-04-19T02:19:02;94682.63;;;8.98;100.00
33155;BME280;19511;42.682;23.332;2023-04-19T02:21:28;94689.13;;;9.15;100.00
33155;BME280;19511;42.682;23.332;2023-04-19T02:23:57;94704.28;;;9.35;100.00
33155;BME280;19511;42.682;23.332;2023-04-19T02:26:22;94606.50;;;8.70;100.00
33155;BME280;19511;42.682;23.332;2023-04-19T02:28:50;94607.25;;;8.74;100.00
33155;BME280;19511;42.682;23.332;2023-04-19T02:31:16;94706.66;;;9.32;100.00
33155;BME280;19511;42.682;23.332;2023-04-19T02:33:42;94686.66;;;9.25;100.00
33155;BME280;19511;42.682;23.332;2023-04-19T02:36:08;94705.81;;;9.36;100.00
33155;BME280;19511;42.682;23.332;2023-04-19T02:38:33;94686.19;;;9.30;100.00
33155;BME280;19511;42.682;23.332;2023-04-19T02:40:59;94706.25;;;9.34;100.00
33155;BME280;19511;42.682;23.332;2023-04-19T02:43:28;94710.16;;;9.37;100.00
33155;BME280;19511;42.682;23.332;2023-04-19T02:45:53;94693.75;;;9.26;100.00
33155;BME280;19511;42.682;23.332;2023-04-19T02:48:19;94702.75;;;9.30;100.00
33155;BME280;19511;42.682;23.332;2023-04-19T02:50:44;94694.94;;;9.25;100.00
33155;BME280;19511;42.682;23.332;2023-04-19T02:53:10;94670.72;;;9.05;100.00
33155;BME280;19511;42.682;23.332;2023-04-19T02:55:35;94703.59;;;9.27;100.00
33155;BME280;19511;42.682;23.332;2023-04-19T02:58:00;94704.38;;;9.27;100.00
33155;BME280;19511;42.682;23.332;2023-04-19T03:00:26;94701.69;;;9.20;100.00
33155;BME280;19511;42.682;23.332;2023-04-19T03:02:51;94707.16;;;9.24;100.00
33155;BME280;19511;42.682;23.332;2023-04-19T03:05:17;94700.44;;;9.25;100.00
33155;BME280;19511;42.682;23.332;2023-04-19T03:07:42;94639.13;;;8.79;100.00
33155;BME280;19511;42.682;23.332;2023-04-19T03:10:20;94626.97;;;8.73;100.00
33155;BME280;19511;42.682;23.332;2023-04-19T03:12:45;94708.00;;;9.21;100.00
33155;BME280;19511;42.682;23.332;2023-04-19T03:15:11;94710.81;;;9.13;100.00
33155;BME280;19511;42.682;23.332;2023-04-19T03:17:36;94685.25;;;9.09;100.00
33155;BME280;19511;42.682;23.332;2023-04-19T03:20:02;94620.75;;;8.65;100.00
33155;BME280;19511;42.682;23.332;2023-04-19T03:22:33;94695.84;;;9.14;100.00
33155;BME280;19511;42.682;23.332;2023-04-19T03:25:03;94677.00;;;9.09;100.00
33155;BME280;19511;42.682;23.332;2023-04-19T03:27:29;94604.34;;;8.50;100.00
33155;BME280;19511;42.682;23.332;2023-04-19T03:29:55;94704.56;;;9.09;100.00
33155;BME280;19511;42.682;23.332;2023-04-19T03:32:21;94700.63;;;9.10;100.00
33155;BME280;19511;42.682;23.332;2023-04-19T03:34:46;94710.38;;;9.19;100.00
33155;BME280;19511;42.682;23.332;2023-04-19T03:37:12;94695.91;;;9.07;100.00
33155;BME280;19511;42.682;23.332;2023-04-19T03:39:37;94671.69;;;8.91;100.00
33155;BME280;19511;42.682;23.332;2023-04-19T03:42:03;94707.31;;;9.13;100.00
33155;BME280;19511;42.682;23.332;2023-04-19T03:44:32;94618.13;;;8.50;100.00
33155;BME280;19511;42.682;23.332;2023-04-19T03:46:58;94689.31;;;8.97;100.00
33155;BME280;19511;42.682;23.332;2023-04-19T03:49:23;94672.16;;;8.82;100.00
33155;BME280;19511;42.682;23.332;2023-04-19T03:51:49;94703.06;;;9.01;100.00
33155;BME280;19511;42.682;23.332;2023-04-19T03:54:14;94574.78;;;8.16;100.00
33155;BME280;19511;42.682;23.332;2023-04-19T03:56:40;94694.94;;;8.90;100.00
33155;BME280;19511;42.682;23.332;2023-04-19T03:59:06;94619.38;;;8.42;100.00
33155;BME280;19511;42.682;23.332;2023-04-19T04:01:32;94700.78;;;8.96;100.00
33155;BME280;19511;42.682;23.332;2023-04-19T04:04:00;94685.81;;;8.93;100.00
33155;BME280;19511;42.682;23.332;2023-04-19T04:06:25;94700.03;;;8.92;100.00
33155;BME280;19511;42.682;23.332;2023-04-19T04:08:51;94606.06;;;8.33;100.00
33155;BME280;19511;42.682;23.332;2023-04-19T04:11:16;94689.94;;;8.78;100.00
33155;BME280;19511;42.682;23.332;2023-04-19T04:13:43;94697.78;;;8.79;100.00
33155;BME280;19511;42.682;23.332;2023-04-19T04:16:10;94703.28;;;8.83;100.00
33155;BME280;19511;42.682;23.332;2023-04-19T04:18:38;94693.13;;;8.73;100.00
33155;BME280;19511;42.682;23.332;2023-04-19T04:21:08;94713.09;;;8.88;100.00
33155;BME280;19511;42.682;23.332;2023-04-19T04:23:37;94715.84;;;8.88;100.00
33155;BME280;19511;42.682;23.332;2023-04-19T04:26:03;94669.63;;;8.61;100.00
33155;BME280;19511;42.682;23.332;2023-04-19T04:28:34;94700.84;;;8.89;100.00
33155;BME280;19511;42.682;23.332;2023-04-19T04:31:03;94638.63;;;8.49;100.00
33155;BME280;19511;42.682;23.332;2023-04-19T04:33:30;94722.38;;;9.01;100.00
33155;BME280;19511;42.682;23.332;2023-04-19T04:35:55;94722.03;;;8.99;100.00
33155;BME280;19511;42.682;23.332;2023-04-19T04:38:23;94726.78;;;8.95;100.00
33155;BME280;19511;42.682;23.332;2023-04-19T04:40:50;94718.13;;;8.96;100.00
33155;BME280;19511;42.682;23.332;2023-04-19T04:43:23;94718.56;;;8.91;100.00
33155;BME280;19511;42.682;23.332;2023-04-19T04:45:50;94717.84;;;8.83;100.00
33155;BME280;19511;42.682;23.332;2023-04-19T04:48:19;94727.34;;;8.79;100.00
33155;BME280;19511;42.682;23.332;2023-04-19T04:50:45;94591.09;;;7.93;100.00
33155;BME280;19511;42.682;23.332;2023-04-19T04:53:10;94711.25;;;8.74;100.00
33155;BME280;19511;42.682;23.332;2023-04-19T04:55:38;94708.88;;;8.72;100.00
33155;BME280;19511;42.682;23.332;2023-04-19T04:58:05;94729.25;;;8.86;100.00
33155;BME280;19511;42.682;23.332;2023-04-19T05:00:31;94724.84;;;8.92;100.00
33155;BME280;19511;42.682;23.332;2023-04-19T05:03:05;94704.00;;;8.87;100.00
33155;BME280;19511;42.682;23.332;2023-04-19T05:05:38;94724.41;;;8.97;100.00
33155;BME280;19511;42.682;23.332;2023-04-19T05:08:04;94719.06;;;8.82;100.00
33155;BME280;19511;42.682;23.332;2023-04-19T05:10:29;94710.31;;;8.88;100.00
33155;BME280;19511;42.682;23.332;2023-04-19T05:12:55;94708.47;;;8.77;100.00
33155;BME280;19511;42.682;23.332;2023-04-19T05:15:24;94727.69;;;8.85;100.00
33155;BME280;19511;42.682;23.332;2023-04-19T05:17:50;94717.59;;;8.67;100.00
33155;BME280;19511;42.682;23.332;2023-04-19T05:20:15;94705.03;;;8.66;100.00
33155;BME280;19511;42.682;23.332;2023-04-19T05:22:41;94652.59;;;8.28;100.00
33155;BME280;19511;42.682;23.332;2023-04-19T05:25:08;94737.91;;;8.88;100.00
33155;BME280;19511;42.682;23.332;2023-04-19T05:27:34;94738.66;;;8.92;100.00
33155;BME280;19511;42.682;23.332;2023-04-19T05:30:05;94731.13;;;8.96;100.00
33155;BME280;19511;42.682;23.332;2023-04-19T05:32:33;94729.19;;;8.93;100.00
33155;BME280;19511;42.682;23.332;2023-04-19T05:34:58;94720.56;;;8.87;100.00
33155;BME280;19511;42.682;23.332;2023-04-19T05:37:25;94727.22;;;8.90;100.00
33155;BME280;19511;42.682;23.332;2023-04-19T05:39:51;94722.84;;;8.96;100.00
33155;BME280;19511;42.682;23.332;2023-04-19T05:42:20;94670.78;;;8.63;100.00
33155;BME280;19511;42.682;23.332;2023-04-19T05:44:46;94730.56;;;9.12;100.00
33155;BME280;19511;42.682;23.332;2023-04-19T05:47:11;94737.50;;;9.24;100.00
33155;BME280;19511;42.682;23.332;2023-04-19T05:49:40;94723.88;;;9.09;100.00
33155;BME280;19511;42.682;23.332;2023-04-19T05:52:08;94742.97;;;9.31;100.00
33155;BME280;19511;42.682;23.332;2023-04-19T05:54:37;94729.16;;;9.31;100.00
33155;BME280;19511;42.682;23.332;2023-04-19T05:57:03;94735.78;;;9.37;100.00
33155;BME280;19511;42.682;23.332;2023-04-19T05:59:28;94723.19;;;9.36;100.00
33155;BME280;19511;42.682;23.332;2023-04-19T06:01:54;94741.50;;;9.54;100.00
33155;BME280;19511;42.682;23.332;2023-04-19T06:04:30;94734.34;;;9.60;100.00
33155;BME280;19511;42.682;23.332;2023-04-19T06:06:55;94732.31;;;9.64;100.00
33155;BME280;19511;42.682;23.332;2023-04-19T06:09:20;94734.66;;;9.66;100.00
33155;BME280;19511;42.682;23.332;2023-04-19T06:11:49;94734.97;;;9.71;100.00
33155;BME280;19511;42.682;23.332;2023-04-19T06:14:19;94661.91;;;9.18;100.00
33155;BME280;19511;42.682;23.332;2023-04-19T06:16:45;94686.84;;;9.41;100.00
33155;BME280;19511;42.682;23.332;2023-04-19T06:19:10;94668.72;;;9.40;100.00
33155;BME280;19511;42.682;23.332;2023-04-19T06:21:36;94721.47;;;9.77;100.00
33155;BME280;19511;42.682;23.332;2023-04-19T06:24:01;94740.09;;;10.00;100.00
33155;BME280;19511;42.682;23.332;2023-04-19T06:26:27;94714.97;;;9.91;100.00
33155;BME280;19511;42.682;23.332;2023-04-19T06:28:52;94668.06;;;9.60;100.00
33155;BME280;19511;42.682;23.332;2023-04-19T06:31:24;94736.28;;;10.18;100.00
33155;BME280;19511;42.682;23.332;2023-04-19T06:33:49;94736.25;;;10.21;100.00
33155;BME280;19511;42.682;23.332;2023-04-19T06:36:19;94706.59;;;9.98;100.00
33155;BME280;19511;42.682;23.332;2023-04-19T06:38:46;94740.22;;;10.20;100.00
33155;BME280;19511;42.682;23.332;2023-04-19T06:41:15;94647.06;;;9.66;100.00
33155;BME280;19511;42.682;23.332;2023-04-19T06:43:44;94712.63;;;10.17;100.00
33155;BME280;19511;42.682;23.332;2023-04-19T06:46:13;94652.16;;;9.95;100.00
33155;BME280;19511;42.682;23.332;2023-04-19T06:48:39;94731.78;;;10.55;100.00
33155;BME280;19511;42.682;23.332;2023-04-19T06:51:06;94716.59;;;10.67;100.00
33155;BME280;19511;42.682;23.332;2023-04-19T06:53:35;94643.53;;;10.17;100.00
33155;BME280;19511;42.682;23.332;2023-04-19T06:56:03;94654.94;;;10.19;100.00
33155;BME280;19511;42.682;23.332;2023-04-19T06:58:32;94715.38;;;10.68;100.00
33155;BME280;19511;42.682;23.332;2023-04-19T07:00:58;94713.16;;;10.83;100.00
33155;BME280;19511;42.682;23.332;2023-04-19T07:03:28;94677.78;;;10.50;100.00
33155;BME280;19511;42.682;23.332;2023-04-19T07:05:56;94736.41;;;10.85;100.00
33155;BME280;19511;42.682;23.332;2023-04-19T07:08:24;94744.13;;;10.98;100.00
33155;BME280;19511;42.682;23.332;2023-04-19T07:10:53;94730.00;;;11.12;100.00
33155;BME280;19511;42.682;23.332;2023-04-19T07:13:27;94754.63;;;11.06;100.00
33155;BME280;19511;42.682;23.332;2023-04-19T07:15:56;94751.00;;;11.09;100.00
33155;BME280;19511;42.682;23.332;2023-04-19T07:18:21;94736.00;;;10.87;100.00
33155;BME280;19511;42.682;23.332;2023-04-19T07:20:48;94743.75;;;10.95;100.00
33155;BME280;19511;42.682;23.332;2023-04-19T07:23:14;94754.16;;;10.88;100.00
33155;BME280;19511;42.682;23.332;2023-04-19T07:25:43;94744.75;;;10.61;100.00
33155;BME280;19511;42.682;23.332;2023-04-19T07:28:09;94760.06;;;10.66;100.00
33155;BME280;19511;42.682;23.332;2023-04-19T07:30:35;94751.16;;;10.55;100.00
33155;BME280;19511;42.682;23.332;2023-04-19T07:33:01;94742.38;;;10.36;100.00
33155;BME280;19511;42.682;23.332;2023-04-19T07:35:28;94751.13;;;10.31;100.00
33155;BME280;19511;42.682;23.332;2023-04-19T07:37:54;94755.78;;;10.38;100.00
33155;BME280;19511;42.682;23.332;2023-04-19T07:40:20;94692.31;;;10.03;100.00
33155;BME280;19511;42.682;23.332;2023-04-19T07:43:00;94757.78;;;10.61;100.00
33155;BME280;19511;42.682;23.332;2023-04-19T07:45:25;94658.19;;;10.13;100.00
33155;BME280;19511;42.682;23.332;2023-04-19T07:47:53;94751.03;;;10.86;100.00
33155;BME280;19511;42.682;23.332;2023-04-19T07:50:21;94713.63;;;10.77;100.00
33155;BME280;19511;42.682;23.332;2023-04-19T07:52:52;94745.38;;;10.93;100.00
33155;BME280;19511;42.682;23.332;2023-04-19T07:55:18;94667.97;;;10.45;100.00
33155;BME280;19511;42.682;23.332;2023-04-19T07:57:47;94753.88;;;11.06;100.00
33155;BME280;19511;42.682;23.332;2023-04-19T08:00:14;94756.06;;;11.15;100.00
33155;BME280;19511;42.682;23.332;2023-04-19T08:02:46;94754.03;;;11.19;100.00
33155;BME280;19511;42.682;23.332;2023-04-19T08:05:14;94753.28;;;11.15;100.00
33155;BME280;19511;42.682;23.332;2023-04-19T08:07:43;94737.53;;;11.11;100.00
33155;BME280;19511;42.682;23.332;2023-04-19T08:10:09;94748.28;;;10.86;100.00
33155;BME280;19511;42.682;23.332;2023-04-19T08:12:39;94757.13;;;10.77;100.00
33155;BME280;19511;42.682;23.332;2023-04-19T08:15:07;94741.84;;;10.69;100.00
33155;BME280;19511;42.682;23.332;2023-04-19T08:17:33;94752.19;;;10.88;100.00
33155;BME280;19511;42.682;23.332;2023-04-19T08:19:58;94752.59;;;10.87;100.00
33155;BME280;19511;42.682;23.332;2023-04-19T08:22:28;94751.97;;;10.99;100.00
33155;BME280;19511;42.682;23.332;2023-04-19T08:24:56;94755.25;;;10.94;100.00
33155;BME280;19511;42.682;23.332;2023-04-19T08:27:21;94681.50;;;10.40;100.00
33155;BME280;19511;42.682;23.332;2023-04-19T08:29:48;94743.03;;;10.91;100.00
33155;BME280;19511;42.682;23.332;2023-04-19T08:32:14;94727.13;;;10.95;100.00
33155;BME280;19511;42.682;23.332;2023-04-19T08:34:43;94750.97;;;11.33;100.00
33155;BME280;19511;42.682;23.332;2023-04-19T08:37:15;94745.38;;;11.37;100.00
33155;BME280;19511;42.682;23.332;2023-04-19T08:39:40;94655.63;;;10.94;100.00
33155;BME280;19511;42.682;23.332;2023-04-19T08:42:12;94729.59;;;11.54;100.00
33155;BME280;19511;42.682;23.332;2023-04-19T08:44:38;94721.84;;;11.65;100.00
33155;BME280;19511;42.682;23.332;2023-04-19T08:47:04;94738.69;;;11.74;100.00
33155;BME280;19511;42.682;23.332;2023-04-19T08:49:34;94737.63;;;11.68;100.00
33155;BME280;19511;42.682;23.332;2023-04-19T08:52:02;94691.13;;;11.39;100.00
33155;BME280;19511;42.682;23.332;2023-04-19T08:54:28;94701.84;;;11.37;100.00
33155;BME280;19511;42.682;23.332;2023-04-19T08:56:58;94686.72;;;11.22;100.00
33155;BME280;19511;42.682;23.332;2023-04-19T08:59:24;94676.00;;;11.24;100.00
33155;BME280;19511;42.682;23.332;2023-04-19T09:01:50;94734.91;;;11.85;100.00
33155;BME280;19511;42.682;23.332;2023-04-19T09:04:19;94691.59;;;11.74;100.00
33155;BME280;19511;42.682;23.332;2023-04-19T09:06:44;94710.03;;;12.01;100.00
33155;BME280;19511;42.682;23.332;2023-04-19T09:11:53;94719.47;;;11.84;100.00
33155;BME280;19511;42.682;23.332;2023-04-19T09:14:20;94713.59;;;11.82;100.00
33155;BME280;19511;42.682;23.332;2023-04-19T09:16:50;94706.19;;;11.95;100.00
33155;BME280;19511;42.682;23.332;2023-04-19T09:19:19;94721.22;;;12.14;100.00
33155;BME280;19511;42.682;23.332;2023-04-19T09:21:45;94679.88;;;12.03;100.00
33155;BME280;19511;42.682;23.332;2023-04-19T09:24:22;94712.91;;;12.31;100.00
33155;BME280;19511;42.682;23.332;2023-04-19T09:26:56;94698.72;;;11.92;100.00
33155;BME280;19511;42.682;23.332;2023-04-19T09:29:22;94716.41;;;11.98;100.00
33155;BME280;19511;42.682;23.332;2023-04-19T09:32:00;94702.25;;;12.13;100.00
33155;BME280;19511;42.682;23.332;2023-04-19T09:34:34;94698.59;;;12.16;100.00
33155;BME280;19511;42.682;23.332;2023-04-19T09:37:12;94713.16;;;12.53;100.00
33155;BME280;19511;42.682;23.332;2023-04-19T09:39:38;94706.75;;;12.72;100.00
33155;BME280;19511;42.682;23.332;2023-04-19T09:42:07;94708.91;;;12.81;100.00
33155;BME280;19511;42.682;23.332;2023-04-19T09:44:32;94624.78;;;12.22;100.00
33155;BME280;19511;42.682;23.332;2023-04-19T09:46:59;94696.84;;;12.88;100.00
33155;BME280;19511;42.682;23.332;2023-04-19T09:49:24;94693.94;;;13.08;100.00
33155;BME280;19511;42.682;23.332;2023-04-19T09:51:59;94698.91;;;13.00;100.00
33155;BME280;19511;42.682;23.332;2023-04-19T09:54:25;94684.59;;;13.02;100.00
33155;BME280;19511;42.682;23.332;2023-04-19T09:56:56;94648.25;;;12.96;100.00
33155;BME280;19511;42.682;23.332;2023-04-19T09:59:22;94692.78;;;13.22;100.00
33155;BME280;19511;42.682;23.332;2023-04-19T10:01:52;94670.53;;;13.38;100.00
33155;BME280;19511;42.682;23.332;2023-04-19T10:04:19;94670.56;;;13.51;100.00
33155;BME280;19511;42.682;23.332;2023-04-19T10:06:48;94682.69;;;13.70;100.00
33155;BME280;19511;42.682;23.332;2023-04-19T10:09:15;94671.16;;;13.85;100.00
33155;BME280;19511;42.682;23.332;2023-04-19T10:11:47;94678.44;;;13.53;100.00
33155;BME280;19511;42.682;23.332;2023-04-19T10:14:15;94674.69;;;13.30;100.00
33155;BME280;19511;42.682;23.332;2023-04-19T10:16:41;94672.97;;;13.49;100.00
33155;BME280;19511;42.682;23.332;2023-04-19T10:19:17;94676.56;;;13.50;100.00
33155;BME280;19511;42.682;23.332;2023-04-19T10:21:47;94674.66;;;13.60;100.00
33155;BME280;19511;42.682;23.332;2023-04-19T10:24:17;94671.97;;;13.14;100.00
33155;BME280;19511;42.682;23.332;2023-04-19T10:27:11;94676.66;;;12.87;100.00
33155;BME280;19511;42.682;23.332;2023-04-19T10:35:24;94668.31;;;12.87;100.00
33155;BME280;19511;42.682;23.332;2023-04-19T10:38:13;94610.13;;;12.54;100.00
33155;BME280;19511;42.682;23.332;2023-04-19T10:40:59;94654.44;;;13.17;100.00
33155;BME280;19511;42.682;23.332;2023-04-19T10:46:05;94628.47;;;13.36;100.00
33155;BME280;19511;42.682;23.332;2023-04-19T10:48:32;94649.16;;;13.78;100.00
33155;BME280;19511;42.682;23.332;2023-04-19T10:54:00;94638.56;;;13.98;100.00
33155;BME280;19511;42.682;23.332;2023-04-19T11:01:41;94625.00;;;13.87;100.00
33155;BME280;19511;42.682;23.332;2023-04-19T11:04:11;94610.88;;;13.56;100.00
33155;BME280;19511;42.682;23.332;2023-04-19T11:09:24;94638.69;;;13.69;100.00
33155;BME280;19511;42.682;23.332;2023-04-19T11:11:52;94625.25;;;13.80;100.00
33155;BME280;19511;42.682;23.332;2023-04-19T11:14:22;94623.75;;;14.14;100.00
33155;BME280;19511;42.682;23.332;2023-04-19T11:16:48;94620.66;;;14.25;100.00
33155;BME280;19511;42.682;23.332;2023-04-19T11:19:19;94603.03;;;14.28;100.00
33155;BME280;19511;42.682;23.332;2023-04-19T11:21:46;94598.78;;;14.49;100.00
33155;BME280;19511;42.682;23.332;2023-04-19T11:24:12;94624.28;;;14.83;100.00
33155;BME280;19511;42.682;23.332;2023-04-19T11:26:42;94623.47;;;14.60;100.00
33155;BME280;19511;42.682;23.332;2023-04-19T11:29:08;94617.75;;;14.64;100.00
33155;BME280;19511;42.682;23.332;2023-04-19T11:31:35;94575.91;;;14.32;100.00
33155;BME280;19511;42.682;23.332;2023-04-19T11:34:08;94552.97;;;14.28;100.00
33155;BME280;19511;42.682;23.332;2023-04-19T11:36:46;94549.22;;;14.22;100.00
33155;BME280;19511;42.682;23.332;2023-04-19T11:39:15;94609.41;;;14.77;100.00
33155;BME280;19511;42.682;23.332;2023-04-19T11:41:49;94577.53;;;14.78;100.00
33155;BME280;19511;42.682;23.332;2023-04-19T11:44:18;94610.22;;;15.22;100.00
33155;BME280;19511;42.682;23.332;2023-04-19T11:47:01;94601.44;;;15.32;100.00
33155;BME280;19511;42.682;23.332;2023-04-19T11:49:32;94590.88;;;15.27;100.00
33155;BME280;19511;42.682;23.332;2023-04-19T11:52:04;94604.63;;;15.22;100.00
33155;BME280;19511;42.682;23.332;2023-04-19T11:54:34;94551.66;;;15.12;100.00
33155;BME280;19511;42.682;23.332;2023-04-19T11:57:01;94601.78;;;15.34;100.00
33155;BME280;19511;42.682;23.332;2023-04-19T11:59:32;94586.03;;;15.41;100.00
33155;BME280;19511;42.682;23.332;2023-04-19T12:02:09;94602.53;;;15.57;100.00
33155;BME280;19511;42.682;23.332;2023-04-19T12:04:35;94598.56;;;15.77;100.00
33155;BME280;19511;42.682;23.332;2023-04-19T12:07:09;94578.38;;;15.54;98.25
33155;BME280;19511;42.682;23.332;2023-04-19T12:09:35;94566.16;;;15.61;93.09
33155;BME280;19511;42.682;23.332;2023-04-19T12:12:01;94587.44;;;15.77;91.67
33155;BME280;19511;42.682;23.332;2023-04-19T12:14:28;94570.56;;;15.80;93.28
33155;BME280;19511;42.682;23.332;2023-04-19T12:17:08;94580.94;;;16.11;91.78
33155;BME280;19511;42.682;23.332;2023-04-19T12:19:41;94580.41;;;15.94;93.70
33155;BME280;19511;42.682;23.332;2023-04-19T12:22:08;94573.25;;;15.84;95.03
33155;BME280;19511;42.682;23.332;2023-04-19T12:24:34;94526.63;;;15.53;98.32
33155;BME280;19511;42.682;23.332;2023-04-19T12:26:59;94552.03;;;15.55;100.00
33155;BME280;19511;42.682;23.332;2023-04-19T12:29:26;94578.03;;;15.52;100.00
33155;BME280;19511;42.682;23.332;2023-04-19T12:31:51;94572.72;;;15.45;100.00
33155;BME280;19511;42.682;23.332;2023-04-19T12:34:17;94565.31;;;15.51;100.00
33155;BME280;19511;42.682;23.332;2023-04-19T12:36:42;94581.91;;;15.01;100.00
33155;BME280;19511;42.682;23.332;2023-04-19T12:39:08;94547.13;;;15.06;100.00
33155;BME280;19511;42.682;23.332;2023-04-19T12:41:33;94568.88;;;15.20;100.00
33155;BME280;19511;42.682;23.332;2023-04-19T12:43:59;94570.16;;;15.28;100.00
33155;BME280;19511;42.682;23.332;2023-04-19T12:46:24;94567.09;;;15.35;100.00
33155;BME280;19511;42.682;23.332;2023-04-19T12:48:50;94582.38;;;15.53;100.00
33155;BME280;19511;42.682;23.332;2023-04-19T12:51:18;94578.53;;;15.60;100.00
33155;BME280;19511;42.682;23.332;2023-04-19T12:53:47;94563.47;;;15.48;100.00
33155;BME280;19511;42.682;23.332;2023-04-19T12:56:13;94582.00;;;15.42;100.00
33155;BME280;19511;42.682;23.332;2023-04-19T12:58:40;94571.16;;;15.44;100.00
33155;BME280;19511;42.682;23.332;2023-04-19T13:01:06;94582.59;;;15.37;100.00
33155;BME280;19511;42.682;23.332;2023-04-19T13:03:31;94582.63;;;13.96;100.00
33155;BME280;19511;42.682;23.332;2023-04-19T13:06:01;94609.34;;;13.68;100.00
33155;BME280;19511;42.682;23.332;2023-04-19T13:08:26;94582.41;;;13.52;100.00
33155;BME280;19511;42.682;23.332;2023-04-19T13:10:52;94616.19;;;13.08;100.00